createdAt,value
2018-03-14T00:00:47.314Z,98.82
2018-03-14T00:01:47.306Z,98.44
2018-03-14T00:02:47.284Z,98.63
2018-03-14T00:03:47.265Z,98.54
2018-03-14T00:04:47.260Z,98.07
2018-03-14T00:05:47.230Z,97.50
2018-03-14T00:06:47.224Z,97.54
2018-03-14T00:07:47.200Z,97.97
2018-03-14T00:08:47.186Z,97.69
2018-03-14T00:09:47.218Z,97.97
2018-03-14T00:10:47.138Z,97.59
2018-03-14T00:11:47.122Z,98.07
2018-03-14T00:12:47.102Z,97.40
2018-03-14T00:13:47.098Z,97.78
2018-03-14T00:14:48.055Z,97.78
2018-03-14T00:15:47.091Z,97.21
2018-03-14T00:16:47.040Z,98.16
2018-03-14T00:17:47.023Z,97.97
2018-03-14T00:18:47.002Z,97.69
2018-03-14T00:19:46.992Z,97.31
2018-03-14T00:20:47.023Z,97.78
2018-03-14T00:21:46.960Z,97.88
2018-03-14T00:22:46.951Z,97.78
2018-03-14T00:23:46.923Z,98.25
2018-03-14T00:24:46.903Z,98.63
2018-03-14T00:25:46.883Z,98.44
2018-03-14T00:26:46.871Z,98.82
2018-03-14T00:27:46.854Z,98.25
2018-03-14T00:28:46.834Z,98.63
2018-03-14T00:29:46.822Z,98.73
2018-03-14T00:30:46.811Z,98.73
2018-03-14T00:31:46.844Z,98.63
2018-03-14T00:32:46.765Z,98.44
2018-03-14T00:33:46.753Z,98.25
2018-03-14T00:34:46.733Z,97.69
2018-03-14T00:35:46.720Z,98.16
2018-03-14T00:36:46.710Z,98.73
2018-03-14T00:37:46.741Z,98.82
2018-03-14T00:38:46.669Z,98.44
2018-03-14T00:39:46.655Z,97.88
2018-03-14T00:40:46.630Z,98.07
2018-03-14T00:41:46.620Z,98.07
2018-03-14T00:42:46.606Z,98.25
2018-03-14T00:43:46.585Z,97.59
2018-03-14T00:44:46.862Z,98.16
2018-03-14T00:45:46.540Z,97.97
2018-03-14T00:46:46.534Z,98.07
2018-03-14T00:47:46.510Z,98.63
2018-03-14T00:48:46.496Z,98.25
2018-03-14T00:49:46.482Z,99.01
2018-03-14T00:50:46.472Z,98.25
2018-03-14T00:51:46.469Z,98.35
2018-03-14T00:52:46.427Z,97.50
2018-03-14T00:53:46.403Z,97.59
2018-03-14T00:54:46.391Z,97.59
2018-03-14T00:55:46.387Z,98.44
2018-03-14T00:56:46.361Z,98.25
2018-03-14T00:57:46.379Z,98.63
2018-03-14T00:58:46.326Z,97.97
2018-03-14T00:59:46.311Z,98.25
2018-03-14T01:00:46.299Z,97.40
2018-03-14T01:01:46.344Z,98.07
2018-03-14T01:02:46.255Z,97.69
2018-03-14T01:03:46.237Z,97.50
2018-03-14T01:04:46.229Z,97.69
2018-03-14T01:05:46.206Z,97.97
2018-03-14T01:06:46.189Z,97.78
2018-03-14T01:07:46.211Z,98.16
2018-03-14T01:08:46.157Z,98.21
2018-03-14T01:09:46.139Z,97.92
2018-03-14T01:10:46.124Z,97.64
2018-03-14T01:11:46.099Z,97.64
2018-03-14T01:12:46.124Z,97.64
2018-03-14T01:13:46.072Z,98.21
2018-03-14T01:14:46.060Z,98.02
2018-03-14T01:15:46.040Z,98.02
2018-03-14T01:16:46.024Z,98.02
2018-03-14T01:17:46.044Z,97.92
2018-03-14T01:18:46.012Z,98.11
2018-03-14T01:19:45.967Z,97.45
2018-03-14T01:20:45.952Z,97.73
2018-03-14T01:21:45.987Z,98.02
2018-03-14T01:22:45.920Z,97.92
2018-03-14T01:23:45.892Z,98.21
2018-03-14T01:24:45.888Z,98.11
2018-03-14T01:25:45.866Z,97.35
2018-03-14T01:26:45.854Z,97.45
2018-03-14T01:27:45.835Z,98.02
2018-03-14T01:28:45.806Z,97.45
2018-03-14T01:29:45.793Z,97.73
2018-03-14T01:30:45.794Z,97.45
2018-03-14T01:31:45.770Z,98.02
2018-03-14T01:32:45.747Z,97.64
2018-03-14T01:33:45.756Z,97.83
2018-03-14T01:34:45.717Z,97.83
2018-03-14T01:35:45.699Z,97.83
2018-03-14T01:36:45.684Z,98.87
2018-03-14T01:37:45.732Z,98.58
2018-03-14T01:38:45.637Z,98.68
2018-03-14T01:39:45.627Z,98.77
2018-03-14T01:40:45.604Z,98.11
2018-03-14T01:41:45.596Z,98.02
2018-03-14T01:42:45.580Z,98.02
2018-03-14T01:43:45.593Z,98.77
2018-03-14T01:44:45.550Z,98.68
2018-03-14T01:45:45.522Z,98.30
2018-03-14T01:46:45.502Z,98.30
2018-03-14T01:47:45.498Z,98.49
2018-03-14T01:48:45.521Z,97.83
2018-03-14T01:49:45.449Z,97.64
2018-03-14T01:50:45.445Z,98.39
2018-03-14T01:51:45.422Z,98.21
2018-03-14T01:52:45.397Z,98.58
2018-03-14T01:53:45.386Z,98.58
2018-03-14T01:54:45.368Z,98.77
2018-03-14T01:55:45.350Z,98.96
2018-03-14T01:56:45.332Z,98.96
2018-03-14T01:57:45.318Z,98.77
2018-03-14T01:58:45.290Z,98.21
2018-03-14T01:59:45.332Z,98.49
2018-03-14T02:00:45.261Z,98.35
2018-03-14T02:01:45.234Z,98.54
2018-03-14T02:02:45.223Z,98.63
2018-03-14T02:03:45.210Z,98.44
2018-03-14T02:04:45.194Z,98.44
2018-03-14T02:05:45.232Z,98.54
2018-03-14T02:06:45.159Z,98.16
2018-03-14T02:07:45.139Z,98.54
2018-03-14T02:08:45.122Z,98.25
2018-03-14T02:09:45.114Z,98.21
2018-03-14T02:10:45.079Z,98.44
2018-03-14T02:11:45.104Z,98.35
2018-03-14T02:12:45.043Z,98.63
2018-03-14T02:13:45.028Z,97.78
2018-03-14T02:14:45.018Z,97.97
2018-03-14T02:15:44.996Z,97.78
2018-03-14T02:16:45.023Z,98.35
2018-03-14T02:17:44.962Z,98.44
2018-03-14T02:18:44.952Z,98.68
2018-03-14T02:19:44.932Z,98.16
2018-03-14T02:20:44.915Z,98.72
2018-03-14T02:21:44.898Z,98.44
2018-03-14T02:22:44.883Z,98.58
2018-03-14T02:23:44.856Z,98.72
2018-03-14T02:24:44.834Z,98.72
2018-03-14T02:25:44.816Z,98.68
2018-03-14T02:26:44.814Z,98.96
2018-03-14T02:27:44.796Z,99.48
2018-03-14T02:28:44.767Z,99.39
2018-03-14T02:29:44.769Z,99.25
2018-03-14T02:30:44.744Z,99.15
2018-03-14T02:31:44.790Z,99.25
2018-03-14T02:32:44.698Z,99.15
2018-03-14T02:33:44.685Z,98.96
2018-03-14T02:34:44.665Z,99.53
2018-03-14T02:35:44.643Z,99.25
2018-03-14T02:36:44.627Z,98.91
2018-03-14T02:37:44.616Z,99.53
2018-03-14T02:38:44.589Z,99.01
2018-03-14T02:39:44.566Z,99.25
2018-03-14T02:40:44.557Z,99.20
2018-03-14T02:41:44.541Z,99.06
2018-03-14T02:42:44.561Z,99.48
2018-03-14T02:43:44.512Z,99.29
2018-03-14T02:44:44.529Z,99.48
2018-03-14T02:45:44.465Z,99.48
2018-03-14T02:46:44.473Z,99.20
2018-03-14T02:47:44.440Z,99.20
2018-03-14T02:48:44.455Z,99.20
2018-03-14T02:49:44.403Z,99.20
2018-03-14T02:50:44.389Z,99.29
2018-03-14T02:51:44.361Z,99.20
2018-03-14T02:52:44.356Z,99.20
2018-03-14T02:53:44.386Z,99.10
2018-03-14T02:54:44.319Z,98.91
2018-03-14T02:55:44.291Z,99.10
2018-03-14T02:56:44.275Z,99.20
2018-03-14T02:57:44.265Z,98.72
2018-03-14T02:58:44.245Z,99.48
2018-03-14T02:59:44.229Z,99.34
2018-03-14T03:00:44.202Z,99.34
2018-03-14T03:01:44.190Z,99.53
2018-03-14T03:02:44.178Z,99.82
2018-03-14T03:03:44.152Z,99.15
2018-03-14T03:04:44.167Z,99.82
2018-03-14T03:05:44.114Z,99.53
2018-03-14T03:06:44.096Z,99.77
2018-03-14T03:07:44.079Z,98.87
2018-03-14T03:08:44.108Z,99.10
2018-03-14T03:09:44.056Z,99.29
2018-03-14T03:10:44.069Z,99.29
2018-03-14T03:11:44.009Z,98.82
2018-03-14T03:12:44.093Z,99.44
2018-03-14T03:13:43.985Z,99.44
2018-03-14T03:14:43.964Z,99.44
2018-03-14T03:15:43.947Z,98.77
2018-03-14T03:16:43.923Z,98.91
2018-03-14T03:17:43.902Z,98.77
2018-03-14T03:18:43.890Z,98.82
2018-03-14T03:19:43.872Z,99.15
2018-03-14T03:20:43.852Z,99.44
2018-03-14T03:21:43.831Z,99.10
2018-03-14T03:22:43.823Z,98.77
2018-03-14T03:23:43.830Z,99.20
2018-03-14T03:24:43.788Z,99.06
2018-03-14T03:25:43.763Z,99.20
2018-03-14T03:26:43.751Z,99.15
2018-03-14T03:27:43.759Z,99.06
2018-03-14T03:28:43.709Z,98.91
2018-03-14T03:29:43.701Z,98.91
2018-03-14T03:30:43.678Z,98.96
2018-03-14T03:31:43.659Z,99.53
2018-03-14T03:32:43.673Z,99.10
2018-03-14T03:33:43.629Z,99.48
2018-03-14T03:34:43.668Z,98.82
2018-03-14T03:35:43.598Z,99.01
2018-03-14T03:36:43.572Z,98.91
2018-03-14T03:37:43.564Z,99.44
2018-03-14T03:38:43.528Z,99.29
2018-03-14T03:39:43.510Z,99.39
2018-03-14T03:40:43.527Z,99.29
2018-03-14T03:41:43.486Z,99.58
2018-03-14T03:42:43.471Z,99.67
2018-03-14T03:43:43.453Z,99.77
2018-03-14T03:44:43.437Z,99.29
2018-03-14T03:45:43.442Z,99.58
2018-03-14T03:46:43.447Z,99.01
2018-03-14T03:47:43.374Z,98.91
2018-03-14T03:48:43.369Z,99.29
2018-03-14T03:49:43.339Z,98.91
2018-03-14T03:50:43.318Z,99.39
2018-03-14T03:51:43.305Z,99.29
2018-03-14T03:52:43.351Z,99.48
2018-03-14T03:53:43.277Z,99.58
2018-03-14T03:54:43.253Z,99.77
2018-03-14T03:55:43.244Z,99.99
2018-03-14T03:56:43.212Z,99.48
2018-03-14T03:57:43.207Z,99.99
2018-03-14T03:58:43.197Z,99.86
2018-03-14T03:59:43.232Z,99.72
2018-03-14T04:00:43.176Z,99.72
2018-03-14T04:01:43.138Z,99.99
2018-03-14T04:02:43.114Z,99.99
2018-03-14T04:03:43.106Z,99.99
2018-03-14T04:04:43.087Z,99.99
2018-03-14T04:05:43.074Z,99.99
2018-03-14T04:06:43.043Z,99.99
2018-03-14T04:07:43.037Z,99.99
2018-03-14T04:08:43.015Z,99.99
2018-03-14T04:09:42.991Z,99.67
2018-03-14T04:10:43.010Z,99.99
2018-03-14T04:11:42.955Z,99.99
2018-03-14T04:12:42.936Z,99.99
2018-03-14T04:13:42.931Z,99.96
2018-03-14T04:14:42.910Z,99.96
2018-03-14T04:15:42.892Z,99.67
2018-03-14T04:16:42.910Z,99.99
2018-03-14T04:17:42.865Z,99.99
2018-03-14T04:18:42.840Z,99.99
2018-03-14T04:19:42.816Z,99.99
2018-03-14T04:20:42.830Z,99.10
2018-03-14T04:21:42.852Z,99.58
2018-03-14T04:22:42.763Z,99.39
2018-03-14T04:23:42.748Z,99.39
2018-03-14T04:24:42.727Z,98.82
2018-03-14T04:25:42.713Z,99.48
2018-03-14T04:26:42.699Z,99.10
2018-03-14T04:27:42.737Z,99.86
2018-03-14T04:28:42.660Z,99.01
2018-03-14T04:29:42.643Z,98.91
2018-03-14T04:30:42.637Z,99.48
2018-03-14T04:31:42.600Z,99.48
2018-03-14T04:32:42.583Z,99.10
2018-03-14T04:33:42.609Z,98.91
2018-03-14T04:34:42.556Z,99.01
2018-03-14T04:35:42.583Z,99.20
2018-03-14T04:36:42.524Z,98.91
2018-03-14T04:37:42.504Z,99.10
2018-03-14T04:38:42.544Z,99.20
2018-03-14T04:39:42.471Z,98.91
2018-03-14T04:40:42.441Z,98.72
2018-03-14T04:41:42.424Z,98.77
2018-03-14T04:42:42.414Z,99.29
2018-03-14T04:43:42.404Z,98.72
2018-03-14T04:44:42.442Z,99.15
2018-03-14T04:45:42.365Z,98.91
2018-03-14T04:46:42.339Z,99.20
2018-03-14T04:47:42.320Z,98.72
2018-03-14T04:48:42.316Z,99.29
2018-03-14T04:49:42.284Z,99.48
2018-03-14T04:50:42.283Z,99.48
2018-03-14T04:51:42.257Z,99.01
2018-03-14T04:52:42.240Z,99.10
2018-03-14T04:53:42.246Z,98.77
2018-03-14T04:54:42.208Z,99.58
2018-03-14T04:55:42.198Z,99.15
2018-03-14T04:56:42.173Z,99.10
2018-03-14T04:57:42.206Z,99.39
2018-03-14T04:58:42.136Z,99.39
2018-03-14T04:59:42.106Z,99.39
2018-03-14T05:00:42.103Z,98.72
2018-03-14T05:01:42.082Z,98.91
2018-03-14T05:02:42.061Z,99.48
2018-03-14T05:03:42.081Z,99.20
2018-03-14T05:04:42.022Z,99.20
2018-03-14T05:05:42.019Z,99.48
2018-03-14T05:06:41.999Z,98.82
2018-03-14T05:07:41.968Z,98.63
2018-03-14T05:08:41.996Z,98.72
2018-03-14T05:09:41.950Z,99.10
2018-03-14T05:10:41.919Z,98.82
2018-03-14T05:11:41.914Z,99.34
2018-03-14T05:12:41.886Z,98.91
2018-03-14T05:13:41.869Z,99.29
2018-03-14T05:14:41.893Z,99.25
2018-03-14T05:15:41.844Z,98.91
2018-03-14T05:16:41.822Z,99.29
2018-03-14T05:17:41.800Z,99.48
2018-03-14T05:18:41.790Z,99.39
2018-03-14T05:19:41.818Z,99.29
2018-03-14T05:20:41.740Z,98.96
2018-03-14T05:21:41.724Z,98.63
2018-03-14T05:22:41.706Z,98.54
2018-03-14T05:23:41.692Z,98.44
2018-03-14T05:24:41.677Z,98.54
2018-03-14T05:25:41.692Z,98.39
2018-03-14T05:26:41.704Z,98.72
2018-03-14T05:27:41.628Z,98.63
2018-03-14T05:28:41.604Z,98.35
2018-03-14T05:29:41.583Z,99.20
2018-03-14T05:30:41.627Z,99.10
2018-03-14T05:31:41.550Z,98.72
2018-03-14T05:32:41.544Z,99.10
2018-03-14T05:33:41.520Z,98.82
2018-03-14T05:34:41.511Z,99.53
2018-03-14T05:35:41.479Z,99.99
2018-03-14T05:36:41.533Z,99.99
2018-03-14T05:37:41.444Z,99.67
2018-03-14T05:38:41.428Z,99.99
2018-03-14T05:39:41.414Z,99.99
2018-03-14T05:40:41.393Z,99.39
2018-03-14T05:41:41.380Z,99.01
2018-03-14T05:42:41.412Z,98.91
2018-03-14T05:43:41.350Z,99.20
2018-03-14T05:44:41.336Z,99.39
2018-03-14T05:45:41.313Z,98.91
2018-03-14T05:46:41.301Z,99.20
2018-03-14T05:47:41.277Z,99.10
2018-03-14T05:48:41.313Z,98.91
2018-03-14T05:49:41.245Z,99.10
2018-03-14T05:50:41.225Z,99.10
2018-03-14T05:51:41.210Z,98.91
2018-03-14T05:52:41.184Z,99.20
2018-03-14T05:53:41.168Z,99.39
2018-03-14T05:54:41.157Z,99.29
2018-03-14T05:55:41.138Z,99.58
2018-03-14T05:56:41.117Z,99.77
2018-03-14T05:57:41.092Z,99.99
2018-03-14T05:58:41.088Z,99.96
2018-03-14T05:59:41.111Z,99.99
2018-03-14T06:00:41.041Z,99.77
2018-03-14T06:01:41.020Z,99.99
2018-03-14T06:02:41.008Z,99.99
2018-03-14T06:03:41.000Z,99.99
2018-03-14T06:04:41.012Z,99.99
2018-03-14T06:05:41.054Z,99.99
2018-03-14T06:06:40.939Z,99.82
2018-03-14T06:07:40.930Z,99.99
2018-03-14T06:08:40.928Z,99.99
2018-03-14T06:09:40.944Z,99.96
2018-03-14T06:10:40.876Z,99.99
2018-03-14T06:11:40.848Z,99.96
2018-03-14T06:12:40.832Z,99.91
2018-03-14T06:13:40.978Z,99.86
2018-03-14T06:14:40.840Z,99.99
2018-03-14T06:15:40.811Z,99.72
2018-03-14T06:16:40.762Z,99.72
2018-03-14T06:17:40.750Z,99.99
2018-03-14T06:18:40.746Z,99.99
2018-03-14T06:19:40.902Z,99.99
2018-03-14T06:20:41.290Z,99.99
2018-03-14T06:21:40.676Z,99.99
2018-03-14T06:22:40.658Z,99.99
2018-03-14T06:23:40.654Z,99.99
2018-03-14T06:24:40.618Z,99.99
2018-03-14T06:25:40.605Z,99.99
2018-03-14T06:26:40.600Z,99.99
2018-03-14T06:27:40.580Z,99.99
2018-03-14T06:28:40.558Z,99.99
2018-03-14T06:29:40.543Z,99.99
2018-03-14T06:30:40.529Z,99.99
2018-03-14T06:31:40.570Z,99.99
2018-03-14T06:32:40.487Z,99.99
2018-03-14T06:33:40.462Z,99.99
2018-03-14T06:34:40.451Z,99.99
2018-03-14T06:35:40.440Z,99.99
2018-03-14T06:36:40.409Z,99.99
2018-03-14T06:37:40.432Z,99.99
2018-03-14T06:38:40.401Z,99.99
2018-03-14T06:39:40.361Z,99.99
2018-03-14T06:40:40.358Z,99.99
2018-03-14T06:41:40.324Z,99.99
2018-03-14T06:42:40.360Z,99.99
2018-03-14T06:43:40.300Z,99.99
2018-03-14T06:44:40.277Z,99.99
2018-03-14T06:45:40.263Z,99.99
2018-03-14T06:46:40.249Z,99.99
2018-03-14T06:47:40.227Z,99.99
2018-03-14T06:48:40.223Z,99.99
2018-03-14T06:49:40.203Z,99.99
2018-03-14T06:50:40.179Z,99.99
2018-03-14T06:51:40.153Z,99.99
2018-03-14T06:52:40.150Z,99.99
2018-03-14T06:53:40.147Z,99.99
2018-03-14T06:54:40.160Z,99.99
2018-03-14T06:55:40.084Z,99.99
2018-03-14T06:56:40.066Z,99.99
2018-03-14T06:57:40.054Z,99.99
2018-03-14T06:58:40.032Z,99.99
2018-03-14T06:59:40.032Z,99.99
2018-03-14T07:00:40.033Z,99.99
2018-03-14T07:01:39.998Z,99.99
2018-03-14T07:02:39.997Z,99.99
2018-03-14T07:03:39.947Z,99.99
2018-03-14T07:04:39.930Z,99.99
2018-03-14T07:05:40.012Z,99.99
2018-03-14T07:06:39.906Z,99.99
2018-03-14T07:07:39.883Z,99.99
2018-03-14T07:08:39.878Z,99.99
2018-03-14T07:09:39.849Z,99.99
2018-03-14T07:10:39.833Z,99.99
2018-03-14T07:11:39.824Z,99.99
2018-03-14T07:12:39.795Z,99.99
2018-03-14T07:13:39.783Z,99.99
2018-03-14T07:14:39.765Z,99.99
2018-03-14T07:15:39.745Z,99.99
2018-03-14T07:16:39.776Z,99.99
2018-03-14T07:17:39.716Z,99.99
2018-03-14T07:18:39.698Z,99.99
2018-03-14T07:19:39.676Z,99.99
2018-03-14T07:20:39.665Z,99.99
2018-03-14T07:21:39.656Z,99.99
2018-03-14T07:22:39.654Z,99.91
2018-03-14T07:23:39.603Z,99.44
2018-03-14T07:24:39.586Z,99.53
2018-03-14T07:25:39.626Z,99.63
2018-03-14T07:26:39.557Z,99.99
2018-03-14T07:27:39.541Z,99.99
2018-03-14T07:28:39.528Z,99.99
2018-03-14T07:29:39.513Z,99.99
2018-03-14T07:30:39.494Z,99.99
2018-03-14T07:31:39.482Z,99.99
2018-03-14T07:32:39.458Z,99.91
2018-03-14T07:33:39.442Z,99.99
2018-03-14T07:34:39.453Z,99.82
2018-03-14T07:35:39.392Z,99.63
2018-03-14T07:36:39.388Z,99.15
2018-03-14T07:37:39.370Z,99.15
2018-03-14T07:38:39.405Z,99.44
2018-03-14T07:39:39.343Z,98.58
2018-03-14T07:40:39.313Z,98.39
2018-03-14T07:41:39.296Z,98.68
2018-03-14T07:42:39.285Z,98.77
2018-03-14T07:43:39.265Z,98.39
2018-03-14T07:44:39.328Z,98.39
2018-03-14T07:45:39.221Z,98.87
2018-03-14T07:46:39.218Z,99.53
2018-03-14T07:47:39.188Z,99.25
2018-03-14T07:48:39.188Z,99.25
2018-03-14T07:49:39.166Z,99.53
2018-03-14T07:50:39.152Z,99.63
2018-03-14T07:51:39.168Z,99.63
2018-03-14T07:52:39.162Z,99.82
2018-03-14T07:53:39.097Z,99.99
2018-03-14T07:54:39.075Z,99.99
2018-03-14T07:55:39.084Z,99.99
2018-03-14T07:56:39.077Z,99.99
2018-03-14T07:57:39.038Z,99.99
2018-03-14T07:58:39.019Z,99.15
2018-03-14T07:59:39.072Z,99.53
2018-03-14T08:00:38.996Z,99.25
2018-03-14T08:01:39.088Z,99.15
2018-03-14T08:02:38.955Z,98.77
2018-03-14T08:03:38.939Z,98.68
2018-03-14T08:04:38.918Z,98.68
2018-03-14T08:05:38.894Z,98.96
2018-03-14T08:06:38.893Z,98.21
2018-03-14T08:07:38.866Z,98.49
2018-03-14T08:08:38.838Z,98.77
2018-03-14T08:09:38.875Z,98.58
2018-03-14T08:10:38.813Z,98.58
2018-03-14T08:11:38.828Z,98.58
2018-03-14T08:12:38.777Z,99.01
2018-03-14T08:13:38.877Z,98.68
2018-03-14T08:14:38.748Z,98.92
2018-03-14T08:15:38.731Z,98.39
2018-03-14T08:16:38.729Z,98.77
2018-03-14T08:17:38.734Z,98.82
2018-03-14T08:18:38.693Z,98.21
2018-03-14T08:19:38.682Z,98.02
2018-03-14T08:20:38.641Z,98.63
2018-03-14T08:21:38.639Z,98.73
2018-03-14T08:22:38.622Z,98.63
2018-03-14T08:23:38.656Z,98.07
2018-03-14T08:24:38.582Z,98.49
2018-03-14T08:25:38.568Z,98.63
2018-03-14T08:26:38.544Z,98.25
2018-03-14T08:27:38.522Z,97.78
2018-03-14T08:28:38.530Z,97.88
2018-03-14T08:29:38.521Z,98.25
2018-03-14T08:30:38.484Z,98.25
2018-03-14T08:31:38.462Z,97.97
2018-03-14T08:32:38.437Z,97.97
2018-03-14T08:33:38.425Z,98.25
2018-03-14T08:34:38.439Z,97.97
2018-03-14T08:35:38.408Z,97.21
2018-03-14T08:36:38.391Z,97.31
2018-03-14T08:37:38.356Z,97.59
2018-03-14T08:38:38.389Z,98.16
2018-03-14T08:39:38.335Z,98.25
2018-03-14T08:40:38.317Z,97.50
2018-03-14T08:41:38.311Z,97.69
2018-03-14T08:42:38.287Z,97.40
2018-03-14T08:43:38.275Z,97.97
2018-03-14T08:44:38.318Z,97.88
2018-03-14T08:45:38.244Z,97.88
2018-03-14T08:46:38.218Z,97.69
2018-03-14T08:47:38.199Z,97.88
2018-03-14T08:48:38.181Z,97.12
2018-03-14T08:49:38.164Z,97.12
2018-03-14T08:50:38.214Z,97.12
2018-03-14T08:51:38.135Z,96.83
2018-03-14T08:52:38.126Z,96.83
2018-03-14T08:53:38.096Z,97.12
2018-03-14T08:54:38.082Z,97.02
2018-03-14T08:55:38.062Z,96.26
2018-03-14T08:56:38.090Z,96.17
2018-03-14T08:57:38.992Z,95.03
2018-03-14T08:58:38.018Z,95.31
2018-03-14T08:59:38.010Z,94.37
2018-03-14T09:00:37.987Z,93.89
2018-03-14T09:01:38.299Z,93.99
2018-03-14T09:02:38.013Z,94.56
2018-03-14T09:03:37.956Z,94.08
2018-03-14T09:04:37.932Z,94.37
2018-03-14T09:05:37.912Z,95.03
2018-03-14T09:06:37.937Z,94.18
2018-03-14T09:07:37.869Z,94.18
2018-03-14T09:08:38.038Z,93.23
2018-03-14T09:09:37.985Z,93.04
2018-03-14T09:10:37.867Z,92.38
2018-03-14T09:11:37.813Z,93.32
2018-03-14T09:12:37.967Z,92.66
2018-03-14T09:13:37.783Z,92.66
2018-03-14T09:14:37.748Z,92.28
2018-03-14T09:15:37.780Z,91.52
2018-03-14T09:16:37.721Z,91.52
2018-03-14T09:17:37.708Z,92.57
2018-03-14T09:18:37.697Z,92.94
2018-03-14T09:19:37.691Z,92.38
2018-03-14T09:20:37.747Z,92.38
2018-03-14T09:21:37.646Z,93.04
2018-03-14T09:22:37.646Z,92.85
2018-03-14T09:23:37.615Z,92.18
2018-03-14T09:24:37.661Z,91.90
2018-03-14T09:25:37.577Z,91.90
2018-03-14T09:26:37.570Z,92.28
2018-03-14T09:27:37.535Z,92.66
2018-03-14T09:28:37.536Z,92.09
2018-03-14T09:29:37.510Z,91.80
2018-03-14T09:30:37.554Z,91.90
2018-03-14T09:31:37.476Z,91.52
2018-03-14T09:32:37.463Z,91.80
2018-03-14T09:33:37.448Z,91.61
2018-03-14T09:34:37.442Z,92.38
2018-03-14T09:35:37.417Z,93.27
2018-03-14T09:36:37.424Z,93.37
2018-03-14T09:37:37.390Z,94.03
2018-03-14T09:38:37.368Z,93.94
2018-03-14T09:39:37.356Z,94.13
2018-03-14T09:40:37.351Z,93.84
2018-03-14T09:41:37.374Z,94.70
2018-03-14T09:42:37.304Z,94.79
2018-03-14T09:43:37.347Z,93.94
2018-03-14T09:44:37.314Z,93.27
2018-03-14T09:45:37.364Z,92.90
2018-03-14T09:46:37.247Z,92.90
2018-03-14T09:47:37.291Z,92.90
2018-03-14T09:48:37.211Z,92.99
2018-03-14T09:49:37.200Z,93.37
2018-03-14T09:50:37.186Z,94.03
2018-03-14T09:51:37.158Z,93.94
2018-03-14T09:52:37.144Z,93.18
2018-03-14T09:53:37.160Z,91.19
2018-03-14T09:54:37.128Z,90.24
2018-03-14T09:55:37.107Z,90.43
2018-03-14T09:56:37.087Z,90.14
2018-03-14T09:57:37.080Z,90.81
2018-03-14T09:58:37.079Z,91.47
2018-03-14T09:59:37.115Z,91.94
2018-03-14T10:00:37.016Z,91.75
2018-03-14T10:01:37.004Z,91.47
2018-03-14T10:02:36.992Z,91.38
2018-03-14T10:03:36.987Z,90.43
2018-03-14T10:04:36.963Z,88.72
2018-03-14T10:05:36.979Z,88.72
2018-03-14T10:06:36.974Z,88.34
2018-03-14T10:07:36.911Z,88.62
2018-03-14T10:08:36.891Z,87.68
2018-03-14T10:09:36.886Z,87.96
2018-03-14T10:10:36.907Z,88.81
2018-03-14T10:11:36.878Z,87.30
2018-03-14T10:12:36.852Z,88.24
2018-03-14T10:13:36.830Z,88.53
2018-03-14T10:14:36.813Z,89.48
2018-03-14T10:15:36.968Z,90.62
2018-03-14T10:16:36.775Z,91.04
2018-03-14T10:17:36.760Z,91.24
2018-03-14T10:18:36.756Z,91.04
2018-03-14T10:19:36.734Z,91.24
2018-03-14T10:20:36.784Z,91.80
2018-03-14T10:21:36.713Z,93.04
2018-03-14T10:22:36.684Z,92.66
2018-03-14T10:23:36.675Z,93.13
2018-03-14T10:24:36.649Z,92.75
2018-03-14T10:25:37.641Z,90.57
2018-03-14T10:26:36.817Z,88.39
2018-03-14T10:27:40.422Z,86.49
2018-03-14T10:28:36.600Z,86.11
2018-03-14T10:29:36.595Z,86.30
2018-03-14T10:30:36.579Z,87.62
2018-03-14T10:31:36.600Z,88.86
2018-03-14T10:32:36.541Z,89.62
2018-03-14T10:33:36.526Z,90.09
2018-03-14T10:34:36.516Z,90.57
2018-03-14T10:35:36.494Z,91.33
2018-03-14T10:36:36.485Z,91.04
2018-03-14T10:37:36.535Z,90.95
2018-03-14T10:38:36.445Z,91.47
2018-03-14T10:39:36.436Z,91.85
2018-03-14T10:40:36.428Z,91.47
2018-03-14T10:41:36.398Z,90.42
2018-03-14T10:42:36.392Z,88.29
2018-03-14T10:43:36.374Z,88.24
2018-03-14T10:44:36.377Z,88.53
2018-03-14T10:45:36.339Z,88.81
2018-03-14T10:46:36.332Z,89.67
2018-03-14T10:47:36.322Z,89.38
2018-03-14T10:48:36.344Z,89.38
2018-03-14T10:49:36.288Z,88.90
2018-03-14T10:50:36.270Z,87.48
2018-03-14T10:51:36.256Z,87.57
2018-03-14T10:52:36.243Z,87.48
2018-03-14T10:53:36.296Z,88.62
2018-03-14T10:54:36.228Z,88.43
2018-03-14T10:55:36.208Z,89.67
2018-03-14T10:56:36.188Z,89.57
2018-03-14T10:57:36.175Z,88.71
2018-03-14T10:58:36.198Z,86.43
2018-03-14T10:59:36.181Z,83.87
2018-03-14T11:00:36.171Z,83.39
2018-03-14T11:01:36.182Z,82.45
2018-03-14T11:02:36.099Z,82.07
2018-03-14T11:03:36.084Z,84.11
2018-03-14T11:04:36.083Z,84.34
2018-03-14T11:05:36.056Z,84.44
2018-03-14T11:06:36.052Z,82.88
2018-03-14T11:07:36.065Z,81.07
2018-03-14T11:08:36.020Z,81.07
2018-03-14T11:09:36.004Z,81.74
2018-03-14T11:10:36.049Z,81.84
2018-03-14T11:11:35.985Z,82.31
2018-03-14T11:12:35.958Z,84.01
2018-03-14T11:13:35.950Z,83.64
2018-03-14T11:14:35.928Z,83.26
2018-03-14T11:15:35.927Z,82.50
2018-03-14T11:16:35.951Z,83.16
2018-03-14T11:17:35.891Z,83.36
2018-03-14T11:18:35.881Z,83.64
2018-03-14T11:19:35.854Z,84.97
2018-03-14T11:20:35.858Z,86.63
2018-03-14T11:21:35.866Z,86.91
2018-03-14T11:22:35.816Z,84.82
2018-03-14T11:23:35.795Z,81.74
2018-03-14T11:24:35.784Z,81.07
2018-03-14T11:25:35.844Z,80.88
2018-03-14T11:26:35.750Z,82.78
2018-03-14T11:27:35.749Z,83.73
2018-03-14T11:28:35.722Z,84.91
2018-03-14T11:29:35.707Z,86.24
2018-03-14T11:30:35.704Z,86.11
2018-03-14T11:31:35.708Z,86.05
2018-03-14T11:32:35.673Z,87.29
2018-03-14T11:33:35.669Z,88.24
2018-03-14T11:34:35.661Z,89.28
2018-03-14T11:35:35.623Z,89.67
2018-03-14T11:36:35.668Z,89.09
2018-03-14T11:37:35.603Z,87.01
2018-03-14T11:38:35.579Z,86.43
2018-03-14T11:39:35.565Z,86.34
2018-03-14T11:40:35.591Z,86.53
2018-03-14T11:41:35.533Z,87.10
2018-03-14T11:42:35.563Z,87.19
2018-03-14T11:43:35.511Z,87.01
2018-03-14T11:44:35.501Z,87.19
2018-03-14T11:45:35.494Z,87.57
2018-03-14T11:46:35.463Z,88.34
2018-03-14T11:47:35.451Z,88.43
2018-03-14T11:48:35.462Z,86.15
2018-03-14T11:49:35.521Z,84.16
2018-03-14T11:50:35.444Z,83.01
2018-03-14T11:51:35.428Z,83.01
2018-03-14T11:52:35.390Z,84.34
2018-03-14T11:53:35.363Z,84.44
2018-03-14T11:54:35.351Z,83.68
2018-03-14T11:55:35.336Z,83.30
2018-03-14T11:56:35.357Z,84.06
2018-03-14T11:57:35.350Z,83.59
2018-03-14T11:58:35.305Z,83.49
2018-03-14T11:59:35.314Z,82.54
2018-03-14T12:00:35.274Z,82.26
2018-03-14T12:01:35.256Z,82.16
2018-03-14T12:02:35.238Z,81.97
2018-03-14T12:03:35.236Z,82.26
2018-03-14T12:04:35.261Z,82.64
2018-03-14T12:05:36.486Z,81.78
2018-03-14T12:06:35.178Z,81.49
2018-03-14T12:07:35.177Z,80.93
2018-03-14T12:08:35.147Z,81.12
2018-03-14T12:09:35.148Z,81.21
2018-03-14T12:10:35.273Z,81.87
2018-03-14T12:11:35.113Z,82.45
2018-03-14T12:12:35.098Z,84.91
2018-03-14T12:13:35.077Z,85.34
2018-03-14T12:14:35.065Z,86.91
2018-03-14T12:15:35.128Z,86.86
2018-03-14T12:16:35.047Z,88.38
2018-03-14T12:17:35.031Z,88.38
2018-03-14T12:18:35.034Z,87.62
2018-03-14T12:19:35.056Z,87.14
2018-03-14T12:20:34.991Z,86.86
2018-03-14T12:21:35.036Z,86.67
2018-03-14T12:22:34.961Z,84.77
2018-03-14T12:23:34.952Z,85.30
2018-03-14T12:24:34.930Z,86.38
2018-03-14T12:25:34.919Z,87.05
2018-03-14T12:26:34.907Z,86.38
2018-03-14T12:27:34.886Z,87.24
2018-03-14T12:28:34.868Z,84.48
2018-03-14T12:29:34.867Z,83.72
2018-03-14T12:30:34.847Z,84.01
2018-03-14T12:31:34.835Z,84.44
2018-03-14T12:32:34.892Z,83.39
2018-03-14T12:33:34.818Z,82.54
2018-03-14T12:34:34.798Z,81.68
2018-03-14T12:35:34.776Z,83.78
2018-03-14T12:36:34.770Z,84.25
2018-03-14T12:37:34.762Z,85.01
2018-03-14T12:38:34.837Z,85.05
2018-03-14T12:39:35.466Z,85.72
2018-03-14T12:40:35.348Z,86.19
2018-03-14T12:41:34.816Z,86.95
2018-03-14T12:42:36.046Z,87.43
2018-03-14T12:43:34.670Z,86.47
2018-03-14T12:44:34.693Z,86.38
2018-03-14T12:45:34.655Z,85.62
2018-03-14T12:46:34.714Z,84.29
2018-03-14T12:47:34.613Z,85.62
2018-03-14T12:48:34.665Z,84.29
2018-03-14T12:49:34.582Z,84.20
2018-03-14T12:50:34.571Z,85.53
2018-03-14T12:51:34.566Z,86.57
2018-03-14T12:52:34.549Z,87.62